sensor_id;sensor_type;location;lat;lon;timestamp;pressure;altitude;pressure_sealevel;temperature;humidity
39773;BME280;25451;51.960;6.250;2023-09-18T00:00:20;100528.34;;;19.91;75.77
39773;BME280;25451;51.960;6.250;2023-09-18T00:02:47;100544.41;;;19.99;75.65
39773;BME280;25451;51.960;6.250;2023-09-18T00:05:12;100533.22;;;19.99;75.69
39773;BME280;25451;51.960;6.250;2023-09-18T00:07:41;100550.13;;;20.07;75.71
39773;BME280;25451;51.960;6.250;2023-09-18T00:10:07;100540.88;;;20.07;75.60
39773;BME280;25451;51.960;6.250;2023-09-18T00:12:33;100532.28;;;20.03;75.62
39773;BME280;25451;51.960;6.250;2023-09-18T00:14:58;100526.88;;;20.07;75.62
39773;BME280;25451;51.960;6.250;2023-09-18T00:17:23;100526.44;;;20.00;75.56
39773;BME280;25451;51.960;6.250;2023-09-18T00:19:49;100508.94;;;19.94;75.57
39773;BME280;25451;51.960;6.250;2023-09-18T00:22:16;100507.69;;;20.00;75.63
39773;BME280;25451;51.960;6.250;2023-09-18T00:24:42;100509.88;;;20.03;75.86
39773;BME280;25451;51.960;6.250;2023-09-18T00:27:07;100497.91;;;19.98;75.58
39773;BME280;25451;51.960;6.250;2023-09-18T00:29:32;100501.25;;;20.00;75.71
39773;BME280;25451;51.960;6.250;2023-09-18T00:31:58;100495.34;;;20.01;75.66
39773;BME280;25451;51.960;6.250;2023-09-18T00:34:23;100474.38;;;19.99;75.58
39773;BME280;25451;51.960;6.250;2023-09-18T00:36:48;100475.59;;;20.06;75.72
39773;BME280;25451;51.960;6.250;2023-09-18T00:39:14;100452.72;;;19.91;75.53
39773;BME280;25451;51.960;6.250;2023-09-18T00:41:40;100468.78;;;19.99;75.79
39773;BME280;25451;51.960;6.250;2023-09-18T00:44:06;100470.41;;;20.00;75.89
39773;BME280;25451;51.960;6.250;2023-09-18T00:46:32;100478.22;;;20.03;75.75
39773;BME280;25451;51.960;6.250;2023-09-18T00:48:58;100467.00;;;20.03;75.79
39773;BME280;25451;51.960;6.250;2023-09-18T00:51:23;100460.56;;;20.02;75.79
39773;BME280;25451;51.960;6.250;2023-09-18T00:53:49;100448.00;;;20.00;75.95
39773;BME280;25451;51.960;6.250;2023-09-18T00:56:15;100446.97;;;20.09;75.89
39773;BME280;25451;51.960;6.250;2023-09-18T00:58:42;100430.50;;;19.94;76.00
39773;BME280;25451;51.960;6.250;2023-09-18T01:01:08;100387.63;;;19.71;75.97
39773;BME280;25451;51.960;6.250;2023-09-18T01:03:35;100441.97;;;20.06;75.95
39773;BME280;25451;51.960;6.250;2023-09-18T01:06:01;100429.75;;;20.02;75.90
39773;BME280;25451;51.960;6.250;2023-09-18T01:08:26;100441.53;;;20.13;76.03
39773;BME280;25451;51.960;6.250;2023-09-18T01:11:04;100425.16;;;20.06;76.09
39773;BME280;25451;51.960;6.250;2023-09-18T01:13:39;100420.72;;;20.05;76.08
39773;BME280;25451;51.960;6.250;2023-09-18T01:16:14;100416.66;;;20.11;76.15
39773;BME280;25451;51.960;6.250;2023-09-18T01:18:49;100416.94;;;20.10;76.24
39773;BME280;25451;51.960;6.250;2023-09-18T01:21:16;100407.91;;;20.13;76.24
39773;BME280;25451;51.960;6.250;2023-09-18T01:23:42;100397.31;;;20.10;76.16
39773;BME280;25451;51.960;6.250;2023-09-18T01:26:07;100405.00;;;20.18;76.26
39773;BME280;25451;51.960;6.250;2023-09-18T01:28:33;100396.06;;;20.16;76.33
39773;BME280;25451;51.960;6.250;2023-09-18T01:30:58;100375.88;;;20.05;76.25
39773;BME280;25451;51.960;6.250;2023-09-18T01:33:24;100373.78;;;20.11;76.42
39773;BME280;25451;51.960;6.250;2023-09-18T01:35:51;100373.97;;;20.14;76.48
39773;BME280;25451;51.960;6.250;2023-09-18T01:38:20;100375.50;;;20.20;76.42
39773;BME280;25451;51.960;6.250;2023-09-18T01:40:47;100366.56;;;20.18;76.47
39773;BME280;25451;51.960;6.250;2023-09-18T01:43:13;100349.69;;;20.10;76.51
39773;BME280;25451;51.960;6.250;2023-09-18T01:45:38;100355.59;;;20.22;76.48
39773;BME280;25451;51.960;6.250;2023-09-18T01:48:05;100358.91;;;20.24;76.58
39773;BME280;25451;51.960;6.250;2023-09-18T01:50:31;100355.34;;;20.18;76.61
39773;BME280;25451;51.960;6.250;2023-09-18T01:52:58;100341.09;;;20.06;76.53
39773;BME280;25451;51.960;6.250;2023-09-18T01:55:24;100341.69;;;20.17;76.58
39773;BME280;25451;51.960;6.250;2023-09-18T01:57:49;100352.78;;;20.22;76.56
39773;BME280;25451;51.960;6.250;2023-09-18T02:00:15;100348.50;;;20.24;77.03
39773;BME280;25451;51.960;6.250;2023-09-18T02:02:40;100348.31;;;20.21;76.73
39773;BME280;25451;51.960;6.250;2023-09-18T02:05:06;100357.75;;;20.25;77.01
39773;BME280;25451;51.960;6.250;2023-09-18T02:07:31;100358.75;;;20.29;76.90
39773;BME280;25451;51.960;6.250;2023-09-18T02:09:57;100314.44;;;20.09;77.09
39773;BME280;25451;51.960;6.250;2023-09-18T02:12:22;100327.56;;;20.22;76.95
39773;BME280;25451;51.960;6.250;2023-09-18T02:14:48;100341.09;;;20.28;77.01
39773;BME280;25451;51.960;6.250;2023-09-18T02:17:13;100334.19;;;20.26;77.02
39773;BME280;25451;51.960;6.250;2023-09-18T02:19:38;100345.25;;;20.31;77.09
39773;BME280;25451;51.960;6.250;2023-09-18T02:22:04;100334.69;;;20.28;77.10
39773;BME280;25451;51.960;6.250;2023-09-18T02:24:29;100332.69;;;20.28;77.16
39773;BME280;25451;51.960;6.250;2023-09-18T02:26:55;100324.00;;;20.30;77.29
39773;BME280;25451;51.960;6.250;2023-09-18T02:29:20;100313.56;;;20.22;77.24
39773;BME280;25451;51.960;6.250;2023-09-18T02:31:45;100276.81;;;20.01;77.19
39773;BME280;25451;51.960;6.250;2023-09-18T02:34:11;100310.94;;;20.25;77.33
39773;BME280;25451;51.960;6.250;2023-09-18T02:36:36;100315.06;;;20.28;77.66
39773;BME280;25451;51.960;6.250;2023-09-18T02:39:02;100305.84;;;20.27;77.49
39773;BME280;25451;51.960;6.250;2023-09-18T02:41:27;100279.09;;;20.21;77.64
39773;BME280;25451;51.960;6.250;2023-09-18T02:43:53;100290.53;;;20.33;77.39
39773;BME280;25451;51.960;6.250;2023-09-18T02:46:18;100280.16;;;20.34;77.58
39773;BME280;25451;51.960;6.250;2023-09-18T02:48:43;100266.13;;;20.34;77.50
39773;BME280;25451;51.960;6.250;2023-09-18T02:51:09;100270.75;;;20.38;77.48
39773;BME280;25451;51.960;6.250;2023-09-18T02:53:35;100265.97;;;20.39;77.47
39773;BME280;25451;51.960;6.250;2023-09-18T02:56:00;100247.97;;;20.31;77.52
39773;BME280;25451;51.960;6.250;2023-09-18T02:58:26;100254.44;;;20.40;77.58
39773;BME280;25451;51.960;6.250;2023-09-18T03:00:55;100239.63;;;20.40;77.48
39773;BME280;25451;51.960;6.250;2023-09-18T03:03:20;100227.41;;;20.36;77.54
39773;BME280;25451;51.960;6.250;2023-09-18T03:05:46;100223.59;;;20.40;77.55
39773;BME280;25451;51.960;6.250;2023-09-18T03:08:13;100213.06;;;20.37;77.58
39773;BME280;25451;51.960;6.250;2023-09-18T03:10:40;100208.91;;;20.35;77.56
39773;BME280;25451;51.960;6.250;2023-09-18T03:13:07;100187.16;;;20.32;77.60
39773;BME280;25451;51.960;6.250;2023-09-18T03:15:33;100185.84;;;20.38;77.54
39773;BME280;25451;51.960;6.250;2023-09-18T03:17:59;100178.06;;;20.35;77.57
39773;BME280;25451;51.960;6.250;2023-09-18T03:20:26;100182.88;;;20.43;77.56
39773;BME280;25451;51.960;6.250;2023-09-18T03:22:54;100151.22;;;20.34;77.54
39773;BME280;25451;51.960;6.250;2023-09-18T03:25:19;100154.69;;;20.39;77.40
39773;BME280;25451;51.960;6.250;2023-09-18T03:27:45;100145.28;;;20.35;77.60
39773;BME280;25451;51.960;6.250;2023-09-18T03:30:10;100147.09;;;20.40;77.53
39773;BME280;25451;51.960;6.250;2023-09-18T03:32:41;100149.59;;;20.41;77.56
39773;BME280;25451;51.960;6.250;2023-09-18T03:35:08;100123.19;;;20.34;77.60
39773;BME280;25451;51.960;6.250;2023-09-18T03:37:35;100142.50;;;20.44;77.47
39773;BME280;25451;51.960;6.250;2023-09-18T03:40:00;100131.28;;;20.44;77.58
39773;BME280;25451;51.960;6.250;2023-09-18T03:42:26;100136.41;;;20.42;77.48
39773;BME280;25451;51.960;6.250;2023-09-18T03:44:52;100106.19;;;20.30;77.40
39773;BME280;25451;51.960;6.250;2023-09-18T03:47:17;100106.50;;;20.29;77.44
39773;BME280;25451;51.960;6.250;2023-09-18T03:49:43;100137.41;;;20.46;77.50
39773;BME280;25451;51.960;6.250;2023-09-18T03:52:08;100127.97;;;20.42;77.55
39773;BME280;25451;51.960;6.250;2023-09-18T03:54:33;100128.28;;;20.40;77.62
39773;BME280;25451;51.960;6.250;2023-09-18T03:56:59;100134.59;;;20.46;77.60
39773;BME280;25451;51.960;6.250;2023-09-18T03:59:24;100125.47;;;20.40;77.47
39773;BME280;25451;51.960;6.250;2023-09-18T04:01:50;100138.19;;;20.46;77.65
39773;BME280;25451;51.960;6.250;2023-09-18T04:04:15;100134.22;;;20.39;77.51
39773;BME280;25451;51.960;6.250;2023-09-18T04:06:42;100141.50;;;20.48;77.58
39773;BME280;25451;51.960;6.250;2023-09-18T04:09:08;100152.03;;;20.43;77.76
39773;BME280;25451;51.960;6.250;2023-09-18T04:11:34;100146.09;;;20.44;77.51
39773;BME280;25451;51.960;6.250;2023-09-18T04:14:01;100154.03;;;20.51;77.53
39773;BME280;25451;51.960;6.250;2023-09-18T04:16:26;100139.19;;;20.42;77.63
39773;BME280;25451;51.960;6.250;2023-09-18T04:18:53;100136.41;;;20.42;77.55
39773;BME280;25451;51.960;6.250;2023-09-18T04:21:19;100128.28;;;20.40;77.58
39773;BME280;25451;51.960;6.250;2023-09-18T04:23:44;100138.69;;;20.48;77.65
39773;BME280;25451;51.960;6.250;2023-09-18T04:26:09;100143.00;;;20.46;77.69
39773;BME280;25451;51.960;6.250;2023-09-18T04:28:36;100144.00;;;20.50;77.49
39773;BME280;25451;51.960;6.250;2023-09-18T04:31:01;100128.81;;;20.51;77.56
39773;BME280;25451;51.960;6.250;2023-09-18T04:33:26;100153.72;;;20.61;77.55
39773;BME280;25451;51.960;6.250;2023-09-18T04:35:54;100140.38;;;20.58;77.49
39773;BME280;25451;51.960;6.250;2023-09-18T04:38:19;100131.00;;;20.62;77.60
39773;BME280;25451;51.960;6.250;2023-09-18T04:40:44;100115.16;;;20.58;77.54
39773;BME280;25451;51.960;6.250;2023-09-18T04:43:11;100114.66;;;20.64;77.45
39773;BME280;25451;51.960;6.250;2023-09-18T04:45:36;100103.09;;;20.66;77.54
39773;BME280;25451;51.960;6.250;2023-09-18T04:48:02;100083.81;;;20.56;77.54
39773;BME280;25451;51.960;6.250;2023-09-18T04:50:28;100090.91;;;20.62;77.40
39773;BME280;25451;51.960;6.250;2023-09-18T04:52:53;100093.22;;;20.60;77.48
39773;BME280;25451;51.960;6.250;2023-09-18T04:55:21;100087.59;;;20.60;77.56
39773;BME280;25451;51.960;6.250;2023-09-18T04:57:46;100089.09;;;20.66;77.57
39773;BME280;25451;51.960;6.250;2023-09-18T05:00:12;100086.94;;;20.72;77.54
39773;BME280;25451;51.960;6.250;2023-09-18T05:02:39;100072.91;;;20.72;77.51
39773;BME280;25451;51.960;6.250;2023-09-18T05:05:05;100083.78;;;20.73;77.54
39773;BME280;25451;51.960;6.250;2023-09-18T05:07:33;100073.41;;;20.74;77.74
39773;BME280;25451;51.960;6.250;2023-09-18T05:09:59;100087.13;;;20.67;77.11
39773;BME280;25451;51.960;6.250;2023-09-18T05:12:24;100094.69;;;20.66;77.60
39773;BME280;25451;51.960;6.250;2023-09-18T05:14:49;100103.63;;;20.77;77.68
39773;BME280;25451;51.960;6.250;2023-09-18T05:17:16;100081.66;;;20.70;77.58
39773;BME280;25451;51.960;6.250;2023-09-18T05:19:42;100095.69;;;20.79;77.71
39773;BME280;25451;51.960;6.250;2023-09-18T05:22:08;100080.19;;;20.73;77.82
39773;BME280;25451;51.960;6.250;2023-09-18T05:24:36;100100.63;;;20.82;77.84
39773;BME280;25451;51.960;6.250;2023-09-18T05:27:01;100080.00;;;20.69;77.85
39773;BME280;25451;51.960;6.250;2023-09-18T05:29:28;100094.88;;;20.78;77.92
39773;BME280;25451;51.960;6.250;2023-09-18T05:31:53;100072.75;;;20.68;77.97
39773;BME280;25451;51.960;6.250;2023-09-18T05:34:18;100101.59;;;20.77;78.03
39773;BME280;25451;51.960;6.250;2023-09-18T05:36:44;100111.69;;;20.78;77.93
39773;BME280;25451;51.960;6.250;2023-09-18T05:39:09;100122.91;;;20.78;77.84
39773;BME280;25451;51.960;6.250;2023-09-18T05:41:38;100141.88;;;20.81;77.68
39773;BME280;25451;51.960;6.250;2023-09-18T05:44:04;100146.84;;;20.84;77.80
39773;BME280;25451;51.960;6.250;2023-09-18T05:46:34;100143.69;;;20.86;77.62
39773;BME280;25451;51.960;6.250;2023-09-18T05:48:59;100148.47;;;20.94;77.70
39773;BME280;25451;51.960;6.250;2023-09-18T05:51:25;100131.50;;;20.90;77.69
39773;BME280;25451;51.960;6.250;2023-09-18T05:53:51;100144.34;;;20.91;77.43
39773;BME280;25451;51.960;6.250;2023-09-18T05:56:16;100164.69;;;20.97;77.76
39773;BME280;25451;51.960;6.250;2023-09-18T05:58:43;100167.13;;;20.90;77.19
39773;BME280;25451;51.960;6.250;2023-09-18T06:01:08;100185.44;;;20.96;77.65
39773;BME280;25451;51.960;6.250;2023-09-18T06:03:33;100173.59;;;20.99;77.70
39773;BME280;25451;51.960;6.250;2023-09-18T06:06:04;100185.31;;;21.01;77.62
39773;BME280;25451;51.960;6.250;2023-09-18T06:08:30;100180.81;;;20.91;77.61
39773;BME280;25451;51.960;6.250;2023-09-18T06:10:57;100199.16;;;20.97;77.71
39773;BME280;25451;51.960;6.250;2023-09-18T06:13:24;100189.72;;;20.93;77.66
39773;BME280;25451;51.960;6.250;2023-09-18T06:15:50;100196.69;;;20.96;77.72
39773;BME280;25451;51.960;6.250;2023-09-18T06:18:18;100195.03;;;20.95;77.73
39773;BME280;25451;51.960;6.250;2023-09-18T06:20:46;100200.13;;;21.01;77.81
39773;BME280;25451;51.960;6.250;2023-09-18T06:23:11;100198.50;;;21.00;77.90
39773;BME280;25451;51.960;6.250;2023-09-18T06:25:36;100190.72;;;20.97;77.79
39773;BME280;25451;51.960;6.250;2023-09-18T06:28:03;100182.50;;;21.01;77.80
39773;BME280;25451;51.960;6.250;2023-09-18T06:30:29;100178.56;;;21.02;77.91
39773;BME280;25451;51.960;6.250;2023-09-18T06:32:56;100173.59;;;20.99;77.84
39773;BME280;25451;51.960;6.250;2023-09-18T06:35:21;100173.78;;;21.02;77.81
39773;BME280;25451;51.960;6.250;2023-09-18T06:37:47;100163.16;;;20.99;77.95
39773;BME280;25451;51.960;6.250;2023-09-18T06:40:13;100169.78;;;21.03;77.84
39773;BME280;25451;51.960;6.250;2023-09-18T06:42:38;100166.69;;;21.05;77.86
39773;BME280;25451;51.960;6.250;2023-09-18T06:45:05;100171.47;;;21.04;77.90
39773;BME280;25451;51.960;6.250;2023-09-18T06:47:32;100172.06;;;21.01;77.65
39773;BME280;25451;51.960;6.250;2023-09-18T06:49:57;100189.44;;;21.12;77.76
39773;BME280;25451;51.960;6.250;2023-09-18T06:52:23;100183.84;;;21.03;77.92
39773;BME280;25451;51.960;6.250;2023-09-18T06:54:50;100176.88;;;21.01;77.82
39773;BME280;25451;51.960;6.250;2023-09-18T06:57:15;100183.69;;;21.08;77.87
39773;BME280;25451;51.960;6.250;2023-09-18T06:59:40;100177.72;;;21.10;77.79
39773;BME280;25451;51.960;6.250;2023-09-18T07:02:06;100175.41;;;21.03;77.94
39773;BME280;25451;51.960;6.250;2023-09-18T07:04:31;100179.25;;;21.07;77.79
39773;BME280;25451;51.960;6.250;2023-09-18T07:06:57;100196.41;;;21.14;77.88
39773;BME280;25451;51.960;6.250;2023-09-18T07:09:22;100204.16;;;21.17;77.92
39773;BME280;25451;51.960;6.250;2023-09-18T07:11:51;100187.81;;;21.11;77.88
39773;BME280;25451;51.960;6.250;2023-09-18T07:14:16;100189.78;;;21.10;77.97
39773;BME280;25451;51.960;6.250;2023-09-18T07:16:42;100217.53;;;21.20;77.82
39773;BME280;25451;51.960;6.250;2023-09-18T07:19:08;100208.44;;;21.15;77.83
39773;BME280;25451;51.960;6.250;2023-09-18T07:21:37;100184.84;;;21.07;77.81
39773;BME280;25451;51.960;6.250;2023-09-18T07:24:03;100210.78;;;21.21;77.75
39773;BME280;25451;51.960;6.250;2023-09-18T07:26:30;100215.88;;;21.19;77.78
39773;BME280;25451;51.960;6.250;2023-09-18T07:28:55;100212.41;;;21.22;77.82
39773;BME280;25451;51.960;6.250;2023-09-18T07:31:20;100191.78;;;21.18;77.62
39773;BME280;25451;51.960;6.250;2023-09-18T07:33:46;100188.97;;;21.18;77.86
39773;BME280;25451;51.960;6.250;2023-09-18T07:36:11;100216.38;;;21.21;77.75
39773;BME280;25451;51.960;6.250;2023-09-18T07:38:37;100218.84;;;21.23;77.73
39773;BME280;25451;51.960;6.250;2023-09-18T07:41:08;100195.41;;;21.19;77.93
39773;BME280;25451;51.960;6.250;2023-09-18T07:43:33;100212.25;;;21.27;77.88
39773;BME280;25451;51.960;6.250;2023-09-18T07:45:59;100198.88;;;21.24;77.81
39773;BME280;25451;51.960;6.250;2023-09-18T07:48:26;100191.28;;;21.16;77.71
39773;BME280;25451;51.960;6.250;2023-09-18T07:50:52;100211.91;;;21.20;77.59
39773;BME280;25451;51.960;6.250;2023-09-18T07:53:17;100219.69;;;21.23;77.76
39773;BME280;25451;51.960;6.250;2023-09-18T07:55:42;100201.03;;;21.27;77.74
39773;BME280;25451;51.960;6.250;2023-09-18T07:58:08;100218.19;;;21.34;77.81
39773;BME280;25451;51.960;6.250;2023-09-18T08:00:34;100227.09;;;21.28;77.55
39773;BME280;25451;51.960;6.250;2023-09-18T08:02:59;100216.22;;;21.35;77.63
39773;BME280;25451;51.960;6.250;2023-09-18T08:05:27;100215.22;;;21.39;77.49
39773;BME280;25451;51.960;6.250;2023-09-18T08:07:54;100202.31;;;21.30;77.60
39773;BME280;25451;51.960;6.250;2023-09-18T08:10:21;100225.63;;;21.39;77.52
39773;BME280;25451;51.960;6.250;2023-09-18T08:12:46;100236.50;;;21.40;77.51
39773;BME280;25451;51.960;6.250;2023-09-18T08:15:14;100243.63;;;21.46;77.56
39773;BME280;25451;51.960;6.250;2023-09-18T08:17:40;100202.00;;;21.14;77.53
39773;BME280;25451;51.960;6.250;2023-09-18T08:20:06;100237.69;;;21.48;77.59
39773;BME280;25451;51.960;6.250;2023-09-18T08:22:37;100214.53;;;21.34;77.54
39773;BME280;25451;51.960;6.250;2023-09-18T08:25:03;100247.41;;;21.51;77.30
39773;BME280;25451;51.960;6.250;2023-09-18T08:27:28;100226.28;;;21.44;77.29
39773;BME280;25451;51.960;6.250;2023-09-18T08:29:55;100246.75;;;21.54;77.33
39773;BME280;25451;51.960;6.250;2023-09-18T08:32:20;100220.16;;;21.51;77.27
39773;BME280;25451;51.960;6.250;2023-09-18T08:34:45;100227.44;;;21.52;77.43
39773;BME280;25451;51.960;6.250;2023-09-18T08:37:12;100236.50;;;21.58;77.37
39773;BME280;25451;51.960;6.250;2023-09-18T08:39:38;100233.88;;;21.53;77.23
39773;BME280;25451;51.960;6.250;2023-09-18T08:42:04;100245.44;;;21.60;77.33
39773;BME280;25451;51.960;6.250;2023-09-18T08:44:30;100226.59;;;21.52;77.16
39773;BME280;25451;51.960;6.250;2023-09-18T08:46:58;100254.66;;;21.69;77.13
39773;BME280;25451;51.960;6.250;2023-09-18T08:49:24;100252.69;;;21.69;77.06
39773;BME280;25451;51.960;6.250;2023-09-18T08:51:54;100248.38;;;21.72;77.02
39773;BME280;25451;51.960;6.250;2023-09-18T08:54:21;100259.13;;;21.78;77.09
39773;BME280;25451;51.960;6.250;2023-09-18T08:56:47;100244.44;;;21.81;77.11
39773;BME280;25451;51.960;6.250;2023-09-18T08:59:12;100249.41;;;21.84;76.77
39773;BME280;25451;51.960;6.250;2023-09-18T09:01:39;100227.41;;;21.78;76.81
39773;BME280;25451;51.960;6.250;2023-09-18T09:04:04;100256.66;;;21.94;76.75
39773;BME280;25451;51.960;6.250;2023-09-18T09:06:30;100257.63;;;21.98;76.68
39773;BME280;25451;51.960;6.250;2023-09-18T09:08:55;100255.00;;;21.93;76.58
39773;BME280;25451;51.960;6.250;2023-09-18T09:11:20;100262.91;;;21.99;76.63
39773;BME280;25451;51.960;6.250;2023-09-18T09:13:46;100272.31;;;22.03;76.66
39773;BME280;25451;51.960;6.250;2023-09-18T09:16:12;100283.22;;;22.13;76.62
39773;BME280;25451;51.960;6.250;2023-09-18T09:18:47;100253.63;;;22.07;76.34
39773;BME280;25451;51.960;6.250;2023-09-18T09:21:13;100287.19;;;22.21;76.31
39773;BME280;25451;51.960;6.250;2023-09-18T09:23:48;100290.97;;;22.25;76.35
39773;BME280;25451;51.960;6.250;2023-09-18T09:26:19;100280.53;;;22.25;76.19
39773;BME280;25451;51.960;6.250;2023-09-18T09:28:45;100281.69;;;22.33;76.12
39773;BME280;25451;51.960;6.250;2023-09-18T09:31:31;100277.19;;;22.32;75.81
39773;BME280;25451;51.960;6.250;2023-09-18T09:33:56;100267.41;;;22.38;76.06
39773;BME280;25451;51.960;6.250;2023-09-18T09:36:23;100275.34;;;22.45;75.98
39773;BME280;25451;51.960;6.250;2023-09-18T09:38:54;100262.47;;;22.44;75.71
39773;BME280;25451;51.960;6.250;2023-09-18T09:41:20;100270.56;;;22.45;75.72
39773;BME280;25451;51.960;6.250;2023-09-18T09:43:46;100266.38;;;22.51;75.80
39773;BME280;25451;51.960;6.250;2023-09-18T09:46:16;100268.84;;;22.53;75.51
39773;BME280;25451;51.960;6.250;2023-09-18T09:49:00;100281.25;;;22.60;75.62
39773;BME280;25451;51.960;6.250;2023-09-18T09:51:26;100282.09;;;22.61;75.41
39773;BME280;25451;51.960;6.250;2023-09-18T09:53:52;100287.53;;;22.66;75.35
39773;BME280;25451;51.960;6.250;2023-09-18T09:56:18;100276.44;;;22.69;75.43
39773;BME280;25451;51.960;6.250;2023-09-18T09:59:03;100262.84;;;22.71;75.47
39773;BME280;25451;51.960;6.250;2023-09-18T10:01:35;100264.91;;;22.83;75.45
39773;BME280;25451;51.960;6.250;2023-09-18T10:04:14;100247.41;;;22.77;75.28
39773;BME280;25451;51.960;6.250;2023-09-18T10:06:56;100267.66;;;23.00;75.38
39773;BME280;25451;51.960;6.250;2023-09-18T10:09:23;100295.50;;;23.22;75.33
39773;BME280;25451;51.960;6.250;2023-09-18T10:11:52;100285.50;;;23.33;74.91
39773;BME280;25451;51.960;6.250;2023-09-18T10:14:20;100296.38;;;23.43;74.76
39773;BME280;25451;51.960;6.250;2023-09-18T10:16:54;100298.63;;;23.50;74.76
39773;BME280;25451;51.960;6.250;2023-09-18T10:19:27;100289.75;;;23.60;74.73
39773;BME280;25451;51.960;6.250;2023-09-18T10:22:37;100302.53;;;23.78;75.10
39773;BME280;25451;51.960;6.250;2023-09-18T10:25:23;100297.16;;;23.85;74.93
39773;BME280;25451;51.960;6.250;2023-09-18T10:27:51;100308.78;;;24.04;74.46
39773;BME280;25451;51.960;6.250;2023-09-18T10:30:20;100298.47;;;24.08;74.59
39773;BME280;25451;51.960;6.250;2023-09-18T10:32:48;100299.34;;;24.21;73.92
39773;BME280;25451;51.960;6.250;2023-09-18T10:35:15;100312.63;;;24.32;73.66
39773;BME280;25451;51.960;6.250;2023-09-18T10:37:45;100306.91;;;24.41;73.54
39773;BME280;25451;51.960;6.250;2023-09-18T10:40:12;100298.19;;;24.46;73.63
39773;BME280;25451;51.960;6.250;2023-09-18T10:42:39;100296.09;;;24.55;72.99
39773;BME280;25451;51.960;6.250;2023-09-18T10:45:05;100302.81;;;24.62;73.31
39773;BME280;25451;51.960;6.250;2023-09-18T10:47:32;100303.63;;;24.63;72.98
39773;BME280;25451;51.960;6.250;2023-09-18T10:49:57;100317.50;;;24.68;72.88
39773;BME280;25451;51.960;6.250;2023-09-18T10:52:23;100299.63;;;24.64;72.72
39773;BME280;25451;51.960;6.250;2023-09-18T10:54:48;100317.66;;;24.72;72.64
39773;BME280;25451;51.960;6.250;2023-09-18T10:57:14;100303.75;;;24.66;72.24
39773;BME280;25451;51.960;6.250;2023-09-18T10:59:44;100314.38;;;24.69;72.15
39773;BME280;25451;51.960;6.250;2023-09-18T11:02:10;100308.72;;;24.69;72.16
39773;BME280;25451;51.960;6.250;2023-09-18T11:04:35;100322.72;;;24.78;71.99
39773;BME280;25451;51.960;6.250;2023-09-18T11:07:02;100312.50;;;24.74;71.81
39773;BME280;25451;51.960;6.250;2023-09-18T11:09:29;100317.56;;;24.80;71.84
39773;BME280;25451;51.960;6.250;2023-09-18T11:14:23;100314.75;;;24.92;71.57
39773;BME280;25451;51.960;6.250;2023-09-18T11:16:49;100305.47;;;24.92;71.37
39773;BME280;25451;51.960;6.250;2023-09-18T11:19:18;100307.34;;;25.00;71.26
39773;BME280;25451;51.960;6.250;2023-09-18T11:21:47;100313.00;;;25.00;71.42
39773;BME280;25451;51.960;6.250;2023-09-18T11:24:23;100282.75;;;25.00;70.82
39773;BME280;25451;51.960;6.250;2023-09-18T11:26:49;100306.38;;;25.20;70.94
39773;BME280;25451;51.960;6.250;2023-09-18T11:29:22;100262.25;;;25.03;70.73
39773;BME280;25451;51.960;6.250;2023-09-18T11:31:53;100284.94;;;25.19;70.23
39773;BME280;25451;51.960;6.250;2023-09-18T11:34:30;100288.84;;;25.26;70.14
39773;BME280;25451;51.960;6.250;2023-09-18T11:37:21;100298.25;;;25.42;70.02
39773;BME280;25451;51.960;6.250;2023-09-18T11:39:49;100291.28;;;25.40;69.82
39773;BME280;25451;51.960;6.250;2023-09-18T11:42:19;100308.22;;;25.52;69.49
39773;BME280;25451;51.960;6.250;2023-09-18T11:44:49;100293.41;;;25.55;69.12
39773;BME280;25451;51.960;6.250;2023-09-18T11:47:19;100276.69;;;25.50;68.55
39773;BME280;25451;51.960;6.250;2023-09-18T11:49:56;100297.97;;;25.60;68.48
39773;BME280;25451;51.960;6.250;2023-09-18T11:52:29;100273.28;;;25.44;68.77
39773;BME280;25451;51.960;6.250;2023-09-18T11:54:57;100285.94;;;25.63;68.72
39773;BME280;25451;51.960;6.250;2023-09-18T11:57:23;100281.72;;;25.57;68.75
39773;BME280;25451;51.960;6.250;2023-09-18T11:59:49;100281.22;;;25.67;68.70
39773;BME280;25451;51.960;6.250;2023-09-18T12:02:25;100280.16;;;25.71;68.26
39773;BME280;25451;51.960;6.250;2023-09-18T12:04:54;100281.78;;;25.72;68.37
39773;BME280;25451;51.960;6.250;2023-09-18T12:07:19;100264.63;;;25.65;68.14
39773;BME280;25451;51.960;6.250;2023-09-18T12:09:45;100288.38;;;25.76;67.79
39773;BME280;25451;51.960;6.250;2023-09-18T12:12:11;100289.56;;;25.75;67.23
39773;BME280;25451;51.960;6.250;2023-09-18T12:14:39;100274.75;;;25.66;67.25
39773;BME280;25451;51.960;6.250;2023-09-18T12:17:07;100270.28;;;25.65;67.13
39773;BME280;25451;51.960;6.250;2023-09-18T12:19:33;100283.50;;;25.61;66.88
39773;BME280;25451;51.960;6.250;2023-09-18T12:22:00;100280.91;;;25.56;66.65
39773;BME280;25451;51.960;6.250;2023-09-18T12:24:26;100293.69;;;25.66;66.48
39773;BME280;25451;51.960;6.250;2023-09-18T12:26:53;100290.06;;;25.65;66.38
39773;BME280;25451;51.960;6.250;2023-09-18T12:29:20;100281.38;;;25.58;66.04
39773;BME280;25451;51.960;6.250;2023-09-18T12:31:45;100268.09;;;25.46;66.09
39773;BME280;25451;51.960;6.250;2023-09-18T12:34:21;100278.34;;;25.51;65.75
39773;BME280;25451;51.960;6.250;2023-09-18T12:36:48;100285.16;;;25.50;65.67
39773;BME280;25451;51.960;6.250;2023-09-18T12:39:14;100274.13;;;25.45;65.76
39773;BME280;25451;51.960;6.250;2023-09-18T12:41:44;100278.47;;;25.42;65.74
39773;BME280;25451;51.960;6.250;2023-09-18T12:44:09;100277.28;;;25.43;65.41
39773;BME280;25451;51.960;6.250;2023-09-18T12:46:36;100274.00;;;25.41;65.51
39773;BME280;25451;51.960;6.250;2023-09-18T12:49:19;100267.38;;;25.37;65.31
39773;BME280;25451;51.960;6.250;2023-09-18T12:51:54;100259.84;;;25.29;65.04